createdAt,value
2022-12-03T00:00:16.087Z,11.15
2022-12-03T00:02:42.687Z,11.90
2022-12-03T00:05:09.915Z,11.07
2022-12-03T00:07:37.929Z,9.68
2022-12-03T00:10:05.037Z,10.57
2022-12-03T00:12:31.729Z,10.60
2022-12-03T00:14:58.467Z,11.35
2022-12-03T00:17:25.197Z,11.60
2022-12-03T00:19:51.709Z,10.68
2022-12-03T00:22:18.266Z,11.63
2022-12-03T00:24:44.863Z,12.07
2022-12-03T00:27:13.106Z,14.20
2022-12-03T00:29:39.647Z,13.20
2022-12-03T00:32:19.252Z,13.23
2022-12-03T00:34:47.744Z,13.68
2022-12-03T00:37:16.603Z,13.80
2022-12-03T00:39:46.074Z,11.95
2022-12-03T00:42:12.719Z,13.05
2022-12-03T00:44:39.272Z,12.32
2022-12-03T00:47:05.936Z,12.32
2022-12-03T00:49:33.785Z,12.45
2022-12-03T00:52:00.458Z,13.45
2022-12-03T00:54:31.663Z,12.32
2022-12-03T00:56:58.725Z,12.15
2022-12-03T00:59:25.304Z,12.98
2022-12-03T01:01:52.099Z,13.15
2022-12-03T01:04:22.651Z,12.30
2022-12-03T01:06:50.994Z,12.73
2022-12-03T01:09:17.699Z,12.68
2022-12-03T01:11:44.209Z,13.82
2022-12-03T01:14:21.084Z,12.93
2022-12-03T01:16:47.822Z,13.10
2022-12-03T01:19:18.117Z,11.57
2022-12-03T01:21:45.489Z,13.75
2022-12-03T01:24:12.453Z,13.05
2022-12-03T01:26:39.171Z,14.48
2022-12-03T01:29:06.194Z,13.13
2022-12-03T01:31:56.016Z,13.60
2022-12-03T01:34:22.648Z,12.85
2022-12-03T01:36:49.219Z,12.70
2022-12-03T01:39:15.848Z,12.57
2022-12-03T01:41:43.311Z,12.95
2022-12-03T01:44:25.070Z,13.93
2022-12-03T01:46:53.635Z,13.10
2022-12-03T01:49:22.829Z,13.48
2022-12-03T01:51:58.813Z,13.57
2022-12-03T01:54:35.950Z,12.00
2022-12-03T01:57:03.566Z,13.10
2022-12-03T01:59:34.713Z,12.27
2022-12-03T02:02:15.048Z,13.73
2022-12-03T02:04:41.669Z,14.13
2022-12-03T02:07:45.440Z,14.55
2022-12-03T02:10:13.883Z,13.82
2022-12-03T02:13:00.771Z,15.82
2022-12-03T02:15:27.466Z,15.50
2022-12-03T02:17:54.097Z,14.85
2022-12-03T02:20:20.820Z,15.48
2022-12-03T02:23:00.789Z,15.52
2022-12-03T02:25:35.102Z,14.68
2022-12-03T02:28:02.130Z,14.45
2022-12-03T02:30:29.577Z,14.73
2022-12-03T02:32:56.232Z,15.65
2022-12-03T02:35:24.637Z,15.68
2022-12-03T02:37:52.637Z,16.23
2022-12-03T02:40:24.667Z,15.38
2022-12-03T02:45:26.729Z,14.70
2022-12-03T02:47:56.117Z,16.63
2022-12-03T02:50:26.540Z,17.70
2022-12-03T02:52:54.541Z,17.92
2022-12-03T02:55:21.360Z,17.65
2022-12-03T02:57:50.276Z,17.92
2022-12-03T03:00:17.273Z,18.33
2022-12-03T03:02:45.028Z,16.30
2022-12-03T03:05:12.294Z,18.10
2022-12-03T03:07:39.732Z,18.80
2022-12-03T03:10:07.367Z,18.33
2022-12-03T03:12:39.055Z,18.20
2022-12-03T03:17:35.645Z,18.33
2022-12-03T03:20:02.627Z,18.23
2022-12-03T03:22:36.080Z,18.48
2022-12-03T03:25:06.507Z,19.15
2022-12-03T03:27:33.370Z,16.85
2022-12-03T03:30:00.157Z,16.63
2022-12-03T03:32:30.038Z,16.63
2022-12-03T03:34:57.187Z,17.13
2022-12-03T03:37:23.949Z,17.48
2022-12-03T03:39:50.608Z,15.48
2022-12-03T03:42:17.298Z,15.85
2022-12-03T03:44:44.080Z,15.52
2022-12-03T03:47:10.681Z,15.60
2022-12-03T03:49:37.878Z,17.17
2022-12-03T03:52:04.695Z,16.35
2022-12-03T03:54:31.906Z,16.05
2022-12-03T03:57:01.072Z,17.70
2022-12-03T03:59:28.612Z,17.20
2022-12-03T04:01:55.197Z,17.80
2022-12-03T04:04:23.835Z,14.05
2022-12-03T04:06:50.761Z,17.00
2022-12-03T04:09:22.155Z,18.20
2022-12-03T04:12:13.552Z,16.05
2022-12-03T04:14:44.549Z,14.68
2022-12-03T04:17:12.995Z,15.95
2022-12-03T04:19:42.677Z,16.15
2022-12-03T04:22:27.752Z,17.73
2022-12-03T04:25:22.925Z,18.25
2022-12-03T04:28:11.049Z,18.05
2022-12-03T04:30:38.939Z,16.55
2022-12-03T04:33:23.980Z,18.02
2022-12-03T04:35:50.612Z,14.20
2022-12-03T04:38:17.160Z,14.10
2022-12-03T04:41:01.787Z,18.13
2022-12-03T04:43:28.601Z,17.13
2022-12-03T04:45:58.176Z,15.98
2022-12-03T04:48:24.756Z,18.80
2022-12-03T04:50:54.418Z,19.30
2022-12-03T04:53:22.239Z,18.25
2022-12-03T04:55:48.860Z,18.50
2022-12-03T04:58:15.324Z,18.92
2022-12-03T05:00:44.880Z,18.27
2022-12-03T05:03:11.399Z,19.25
2022-12-03T05:05:37.924Z,18.40
2022-12-03T05:08:04.494Z,18.83
2022-12-03T05:10:31.157Z,17.70
2022-12-03T05:12:57.654Z,18.48
2022-12-03T05:15:24.227Z,18.75
2022-12-03T05:17:53.603Z,18.77
2022-12-03T05:20:38.604Z,18.88
2022-12-03T05:23:07.600Z,19.20
2022-12-03T05:25:45.449Z,18.33
2022-12-03T05:28:11.956Z,19.52
2022-12-03T05:30:41.345Z,18.88
2022-12-03T05:33:08.063Z,17.33
2022-12-03T05:35:34.523Z,19.92
2022-12-03T05:38:01.079Z,20.80
2022-12-03T05:40:27.597Z,19.50
2022-12-03T05:42:57.290Z,18.65
2022-12-03T05:45:24.930Z,19.90
2022-12-03T05:47:52.156Z,19.60
2022-12-03T05:50:19.394Z,18.95
2022-12-03T05:52:46.010Z,20.35
2022-12-03T05:55:12.593Z,20.33
2022-12-03T05:57:39.342Z,19.77
2022-12-03T06:00:08.650Z,19.27
2022-12-03T06:02:35.211Z,19.80
2022-12-03T06:05:04.529Z,21.75
2022-12-03T06:07:34.221Z,20.35
2022-12-03T06:10:00.760Z,16.92
2022-12-03T06:12:33.868Z,19.30
2022-12-03T06:15:00.502Z,19.08
2022-12-03T06:17:36.253Z,20.00
2022-12-03T06:20:03.031Z,19.88
2022-12-03T06:22:35.232Z,20.58
2022-12-03T06:25:06.362Z,19.27
2022-12-03T06:27:33.447Z,20.20
2022-12-03T06:30:00.778Z,18.58
2022-12-03T06:32:27.415Z,21.25
2022-12-03T06:34:54.285Z,20.23
2022-12-03T06:37:23.665Z,18.30
2022-12-03T06:39:50.701Z,18.55
2022-12-03T06:42:17.310Z,19.27
2022-12-03T06:44:43.857Z,19.25
2022-12-03T06:47:13.414Z,18.40
2022-12-03T06:49:41.991Z,19.30
2022-12-03T06:52:08.594Z,20.05
2022-12-03T06:54:36.535Z,21.15
2022-12-03T06:57:05.451Z,19.20
2022-12-03T06:59:43.431Z,19.13
2022-12-03T07:02:16.279Z,21.98
2022-12-03T07:04:46.275Z,22.17
2022-12-03T07:07:13.363Z,22.58
2022-12-03T07:09:39.880Z,22.05
2022-12-03T07:12:06.522Z,21.75
2022-12-03T07:14:36.086Z,22.08
2022-12-03T07:17:02.632Z,23.60
2022-12-03T07:19:32.510Z,24.58
2022-12-03T07:21:59.758Z,25.40
2022-12-03T07:24:26.337Z,23.85
2022-12-03T07:26:55.409Z,23.77
2022-12-03T07:29:21.968Z,23.30
2022-12-03T07:31:48.609Z,22.95
2022-12-03T07:34:15.399Z,20.27
2022-12-03T07:36:44.950Z,21.20
2022-12-03T07:39:11.508Z,20.25
2022-12-03T07:41:42.010Z,20.65
2022-12-03T07:44:14.036Z,18.63
2022-12-03T07:46:44.240Z,18.95
2022-12-03T07:49:12.290Z,18.30
2022-12-03T07:51:38.973Z,18.88
2022-12-03T07:54:05.669Z,17.90
2022-12-03T07:56:32.560Z,18.48
2022-12-03T07:59:02.190Z,19.40
2022-12-03T08:01:33.227Z,18.42
2022-12-03T08:04:15.042Z,17.02
2022-12-03T08:06:41.704Z,18.00
2022-12-03T08:09:11.969Z,17.10
2022-12-03T08:11:44.330Z,17.38
2022-12-03T08:14:18.421Z,17.55
2022-12-03T08:16:47.403Z,19.00
2022-12-03T08:19:15.344Z,18.08
2022-12-03T08:21:42.104Z,19.40
2022-12-03T08:24:17.451Z,19.02
2022-12-03T08:26:44.675Z,18.60
2022-12-03T08:29:14.894Z,19.42
2022-12-03T08:31:41.957Z,19.20
2022-12-03T08:34:18.358Z,19.58
2022-12-03T08:36:47.311Z,21.08
2022-12-03T08:39:28.895Z,19.88
2022-12-03T08:42:21.031Z,19.45
2022-12-03T08:44:47.723Z,18.48
2022-12-03T08:47:20.420Z,18.10
2022-12-03T08:50:07.214Z,18.75
2022-12-03T08:52:35.397Z,19.33
2022-12-03T08:55:35.891Z,17.48
2022-12-03T08:58:22.093Z,19.45
2022-12-03T09:00:57.064Z,19.27
2022-12-03T09:03:24.704Z,19.55
2022-12-03T09:05:51.559Z,20.73
2022-12-03T09:08:18.268Z,19.40
2022-12-03T09:10:47.088Z,20.52
2022-12-03T09:13:13.584Z,20.73
2022-12-03T09:15:42.393Z,18.73
2022-12-03T09:18:10.049Z,16.70
2022-12-03T09:20:36.565Z,17.42
2022-12-03T09:23:03.114Z,16.30
2022-12-03T09:25:29.690Z,16.52
2022-12-03T09:27:56.904Z,15.35
2022-12-03T09:30:23.609Z,16.33
2022-12-03T09:32:50.181Z,16.52
2022-12-03T09:35:17.152Z,16.38
2022-12-03T09:37:43.782Z,15.35
2022-12-03T09:40:10.928Z,15.63
2022-12-03T09:42:37.886Z,15.82
2022-12-03T09:45:10.962Z,15.70
2022-12-03T09:47:38.047Z,16.58
2022-12-03T09:50:07.223Z,16.92
2022-12-03T09:52:34.651Z,16.17
2022-12-03T09:55:04.067Z,17.45
2022-12-03T09:57:31.021Z,17.13
2022-12-03T10:00:03.235Z,15.60
2022-12-03T10:02:30.814Z,18.73
2022-12-03T10:04:58.314Z,18.30
2022-12-03T10:07:25.720Z,17.90
2022-12-03T10:09:52.970Z,18.92
2022-12-03T10:12:22.900Z,18.33
2022-12-03T10:14:49.582Z,19.98
2022-12-03T10:17:19.590Z,21.50
2022-12-03T10:19:46.228Z,21.08
2022-12-03T10:22:12.743Z,21.38
2022-12-03T10:24:39.291Z,22.90
2022-12-03T10:27:22.238Z,21.33
2022-12-03T10:29:59.121Z,20.92
2022-12-03T10:32:46.293Z,21.00
2022-12-03T10:35:15.916Z,21.20
2022-12-03T10:37:59.775Z,22.75
2022-12-03T10:40:27.951Z,21.38
2022-12-03T10:43:12.032Z,23.08
2022-12-03T10:45:38.542Z,23.15
2022-12-03T10:48:14.271Z,24.55
2022-12-03T10:50:53.128Z,24.60
2022-12-03T10:53:21.364Z,25.17
2022-12-03T10:55:48.777Z,26.35
2022-12-03T10:58:35.945Z,26.92
2022-12-03T11:01:06.118Z,24.35
2022-12-03T11:03:36.075Z,25.40
2022-12-03T11:06:05.310Z,23.90
2022-12-03T11:08:37.098Z,24.70
2022-12-03T11:11:08.257Z,24.52
2022-12-03T11:13:35.277Z,24.92
2022-12-03T11:16:03.409Z,24.52
2022-12-03T11:18:36.086Z,23.63
2022-12-03T11:21:02.718Z,24.90
2022-12-03T11:23:47.330Z,23.65
2022-12-03T11:26:28.891Z,23.30
2022-12-03T11:28:56.826Z,23.80
2022-12-03T11:31:37.024Z,23.05
2022-12-03T11:34:18.918Z,23.33
2022-12-03T11:37:11.486Z,21.70
2022-12-03T11:40:02.655Z,22.95
2022-12-03T11:42:37.187Z,24.02
2022-12-03T11:45:06.919Z,22.30
2022-12-03T11:47:39.284Z,20.77
2022-12-03T11:50:19.531Z,21.25
2022-12-03T11:52:48.968Z,23.23
2022-12-03T11:55:27.568Z,22.02
2022-12-03T11:58:10.055Z,20.20
2022-12-03T12:00:36.602Z,20.77
2022-12-03T12:03:03.436Z,22.13
2022-12-03T12:05:34.402Z,22.00
2022-12-03T12:08:01.813Z,21.83
2022-12-03T12:10:43.771Z,20.15
2022-12-03T12:13:28.816Z,18.48
2022-12-03T12:15:55.475Z,19.45
2022-12-03T12:18:40.748Z,20.58
2022-12-03T12:21:25.845Z,22.95
2022-12-03T12:23:52.333Z,22.80
2022-12-03T12:26:18.815Z,21.75
2022-12-03T12:28:45.396Z,24.95
2022-12-03T12:31:11.999Z,25.13
2022-12-03T12:33:38.745Z,26.48
2022-12-03T12:36:08.235Z,24.40
2022-12-03T12:38:34.820Z,24.23
2022-12-03T12:41:05.225Z,26.52
2022-12-03T12:43:34.074Z,25.83
2022-12-03T12:46:38.644Z,25.38
2022-12-03T12:48:57.983Z,25.48
2022-12-03T12:51:26.651Z,25.08
2022-12-03T12:53:53.976Z,26.02
2022-12-03T12:56:28.169Z,24.08
2022-12-03T12:58:57.163Z,26.30
2022-12-03T13:01:30.484Z,24.42
2022-12-03T13:04:09.181Z,24.33
2022-12-03T13:06:35.787Z,23.88
2022-12-03T13:09:02.411Z,25.23
2022-12-03T13:11:38.503Z,24.00
2022-12-03T13:14:11.306Z,23.48
2022-12-03T13:16:38.251Z,24.20
2022-12-03T13:19:15.321Z,24.92
2022-12-03T13:21:45.090Z,23.85
2022-12-03T13:24:30.253Z,23.48
2022-12-03T13:27:03.154Z,22.75
2022-12-03T13:29:29.791Z,23.83
2022-12-03T13:31:58.083Z,24.30
2022-12-03T13:34:39.070Z,23.15
2022-12-03T13:37:29.200Z,22.23
2022-12-03T13:40:14.614Z,23.30
2022-12-03T13:42:46.614Z,22.20
2022-12-03T13:47:43.778Z,21.23
2022-12-03T13:50:30.921Z,21.17
2022-12-03T13:53:03.816Z,23.55
2022-12-03T13:55:31.854Z,23.40
2022-12-03T13:57:58.514Z,24.25
2022-12-03T14:00:28.523Z,23.27
2022-12-03T14:02:55.139Z,23.85
2022-12-03T14:05:22.674Z,23.45
2022-12-03T14:07:49.469Z,24.40
2022-12-03T14:10:23.601Z,24.02
2022-12-03T14:12:50.333Z,24.77
2022-12-03T14:15:16.993Z,25.65
2022-12-03T14:17:43.599Z,25.15
2022-12-03T14:20:11.153Z,26.92
2022-12-03T14:22:38.336Z,25.98
2022-12-03T14:25:06.172Z,25.13
2022-12-03T14:27:32.879Z,25.98
2022-12-03T14:29:59.769Z,25.98
2022-12-03T14:32:32.445Z,28.50
2022-12-03T14:35:03.981Z,26.25
2022-12-03T14:37:35.243Z,25.63
2022-12-03T14:40:06.685Z,27.00
2022-12-03T14:42:33.252Z,26.88
2022-12-03T14:44:59.842Z,26.92
2022-12-03T14:47:26.425Z,28.00
2022-12-03T14:49:56.225Z,28.48
2022-12-03T14:52:25.887Z,29.02
2022-12-03T14:54:55.317Z,27.15
2022-12-03T14:57:26.902Z,30.30
2022-12-03T14:59:57.907Z,28.83
2022-12-03T15:02:24.735Z,29.57
2022-12-03T15:05:00.208Z,29.92
2022-12-03T15:07:31.227Z,29.13
2022-12-03T15:10:00.751Z,28.20
2022-12-03T15:12:30.403Z,30.20
2022-12-03T15:15:00.450Z,28.60
2022-12-03T15:17:31.669Z,28.90
2022-12-03T15:19:58.683Z,28.38
2022-12-03T15:22:25.237Z,30.10
2022-12-03T15:24:51.845Z,28.48
2022-12-03T15:27:20.979Z,27.90
2022-12-03T15:29:50.050Z,28.10
2022-12-03T15:32:19.618Z,29.10
2022-12-03T15:34:46.247Z,30.02
2022-12-03T15:37:15.531Z,28.83
2022-12-03T15:39:48.440Z,27.13
2022-12-03T15:42:22.217Z,29.02
2022-12-03T15:44:57.320Z,28.40
2022-12-03T15:47:23.894Z,27.98
2022-12-03T15:49:53.046Z,29.27
2022-12-03T15:52:20.009Z,27.08
2022-12-03T15:54:46.613Z,27.70
2022-12-03T15:57:16.200Z,27.73
2022-12-03T15:59:43.372Z,27.27
2022-12-03T16:02:10.001Z,29.35
2022-12-03T16:04:39.215Z,27.50
2022-12-03T16:07:13.448Z,28.85
2022-12-03T16:09:42.586Z,30.40
2022-12-03T16:12:09.152Z,29.67
2022-12-03T16:14:35.610Z,29.92
2022-12-03T16:17:02.341Z,30.70
2022-12-03T16:19:28.843Z,31.25
2022-12-03T16:21:58.088Z,31.13
2022-12-03T16:24:24.697Z,30.83
2022-12-03T16:26:51.268Z,31.38
2022-12-03T16:29:25.775Z,31.65
2022-12-03T16:31:52.417Z,30.67
2022-12-03T16:34:19.059Z,32.35
2022-12-03T16:36:45.953Z,32.90
2022-12-03T16:39:15.218Z,35.03
2022-12-03T16:41:41.791Z,34.28
2022-12-03T16:44:10.902Z,34.30
2022-12-03T16:46:37.758Z,34.45
2022-12-03T16:49:07.013Z,34.45
2022-12-03T16:51:38.445Z,35.03
2022-12-03T16:54:07.634Z,32.95
2022-12-03T16:56:34.196Z,33.03
2022-12-03T16:59:06.951Z,32.83
2022-12-03T17:01:45.391Z,30.95
2022-12-03T17:04:13.755Z,30.77
2022-12-03T17:06:40.395Z,30.50
2022-12-03T17:09:07.014Z,29.55
2022-12-03T17:11:36.960Z,30.92
2022-12-03T17:14:03.565Z,27.65
2022-12-03T17:16:30.213Z,28.33
2022-12-03T17:18:56.917Z,30.30
2022-12-03T17:21:23.497Z,28.92
2022-12-03T17:23:51.243Z,29.38
2022-12-03T17:26:18.598Z,27.77
2022-12-03T17:28:48.141Z,27.70
2022-12-03T17:31:14.810Z,29.10
2022-12-03T17:33:44.097Z,30.02
2022-12-03T17:36:10.998Z,29.23
2022-12-03T17:38:39.488Z,32.10
2022-12-03T17:41:07.536Z,31.00
2022-12-03T17:43:34.311Z,34.00
2022-12-03T17:46:00.944Z,32.10
2022-12-03T17:48:32.822Z,31.40
2022-12-03T17:50:59.734Z,29.77
2022-12-03T17:53:26.662Z,30.83
2022-12-03T17:55:53.289Z,30.67
2022-12-03T17:58:21.541Z,28.52
2022-12-03T18:00:48.551Z,32.30
2022-12-03T18:03:15.151Z,29.48
2022-12-03T18:05:41.860Z,30.35
2022-12-03T18:08:08.916Z,30.83
2022-12-03T18:10:35.519Z,30.67
2022-12-03T18:13:02.530Z,29.75
2022-12-03T18:15:39.839Z,30.58
2022-12-03T18:18:06.560Z,31.52
2022-12-03T18:20:33.239Z,28.38
2022-12-03T18:22:59.904Z,29.80
2022-12-03T18:25:27.206Z,30.15
2022-12-03T18:27:56.082Z,28.75
2022-12-03T18:30:23.091Z,27.23
2022-12-03T18:32:50.900Z,26.00
2022-12-03T18:35:18.204Z,27.63
2022-12-03T18:37:44.786Z,28.92
2022-12-03T18:40:17.817Z,29.95
2022-12-03T18:42:44.479Z,28.25
2022-12-03T18:45:17.301Z,28.90
2022-12-03T18:47:44.185Z,27.63
2022-12-03T18:50:11.831Z,28.80
2022-12-03T18:52:38.989Z,27.17
2022-12-03T18:55:06.282Z,28.05
2022-12-03T18:57:40.205Z,26.48
2022-12-03T19:00:13.272Z,29.63
2022-12-03T19:03:02.954Z,27.60
2022-12-03T19:05:33.992Z,26.10
2022-12-03T19:08:04.496Z,25.85
2022-12-03T19:10:31.167Z,26.77
2022-12-03T19:12:58.605Z,25.52
2022-12-03T19:15:45.196Z,25.70
2022-12-03T19:18:11.737Z,26.33
2022-12-03T19:20:40.245Z,27.35
2022-12-03T19:23:09.918Z,26.65
2022-12-03T19:25:37.819Z,29.15
2022-12-03T19:28:04.531Z,27.30
2022-12-03T19:30:33.778Z,28.05
2022-12-03T19:33:02.414Z,27.15
2022-12-03T19:35:29.052Z,27.75
2022-12-03T19:37:57.953Z,28.25
2022-12-03T19:40:26.784Z,27.45
2022-12-03T19:42:56.745Z,27.75
2022-12-03T19:45:26.000Z,23.70
2022-12-03T19:47:58.513Z,26.58
2022-12-03T19:50:25.155Z,26.85
2022-12-03T19:52:51.740Z,25.30
2022-12-03T19:55:24.615Z,24.35
2022-12-03T19:57:51.118Z,25.15
2022-12-03T20:00:17.903Z,26.70
2022-12-03T20:05:41.748Z,23.13
2022-12-03T20:08:08.469Z,25.33
2022-12-03T20:10:38.198Z,25.42
2022-12-03T20:13:05.450Z,23.45
2022-12-03T20:15:34.939Z,24.73
2022-12-03T20:18:01.437Z,25.52
2022-12-03T20:20:28.080Z,23.95
2022-12-03T20:22:54.616Z,25.27
2022-12-03T20:25:24.046Z,27.20
2022-12-03T20:27:50.623Z,25.88
2022-12-03T20:30:17.300Z,28.33
2022-12-03T20:32:45.870Z,29.70
2022-12-03T20:35:16.264Z,29.73
2022-12-03T20:37:42.752Z,29.98
2022-12-03T20:40:12.433Z,30.52
2022-12-03T20:42:38.986Z,31.65
2022-12-03T20:45:08.141Z,29.83
2022-12-03T20:47:36.966Z,31.13
2022-12-03T20:50:04.785Z,30.05
2022-12-03T20:52:31.441Z,29.38
2022-12-03T20:54:57.978Z,31.70
2022-12-03T20:57:24.544Z,29.23
2022-12-03T20:59:51.190Z,30.15
2022-12-03T21:02:23.722Z,31.67
2022-12-03T21:04:50.424Z,30.08
2022-12-03T21:07:16.993Z,30.02
2022-12-03T21:09:43.551Z,31.25
2022-12-03T21:12:10.189Z,31.80
2022-12-03T21:14:41.154Z,31.33
2022-12-03T21:17:09.350Z,30.38
2022-12-03T21:19:36.458Z,30.40
2022-12-03T21:22:03.069Z,31.55
2022-12-03T21:24:30.197Z,29.95
2022-12-03T21:26:56.828Z,30.65
2022-12-03T21:29:25.064Z,31.25
2022-12-03T21:31:54.313Z,33.13
2022-12-03T21:34:20.982Z,32.60
2022-12-03T21:36:51.744Z,31.80
2022-12-03T21:39:19.578Z,31.80
2022-12-03T21:42:19.108Z,29.85
2022-12-03T21:44:35.767Z,31.50
2022-12-03T21:47:11.156Z,30.50
2022-12-03T21:49:41.502Z,31.05
2022-12-03T21:52:12.398Z,29.90
2022-12-03T21:54:41.106Z,29.75
2022-12-03T21:57:07.728Z,30.13
2022-12-03T21:59:34.433Z,31.52
2022-12-03T22:02:01.287Z,29.13
2022-12-03T22:04:27.954Z,31.70
2022-12-03T22:06:56.259Z,31.67
2022-12-03T22:09:26.680Z,30.98
2022-12-03T22:11:55.897Z,31.33
2022-12-03T22:14:22.629Z,30.25
2022-12-03T22:16:49.267Z,30.48
2022-12-03T22:19:15.916Z,30.77
2022-12-03T22:21:42.482Z,30.45
2022-12-03T22:24:09.209Z,30.63
2022-12-03T22:26:37.756Z,31.85
2022-12-03T22:29:15.038Z,29.63
2022-12-03T22:31:41.823Z,30.88
2022-12-03T22:34:08.406Z,30.08
2022-12-03T22:36:35.063Z,30.02
2022-12-03T22:39:01.666Z,30.73
2022-12-03T22:41:30.504Z,31.85
2022-12-03T22:43:57.041Z,28.70
2022-12-03T22:46:23.765Z,31.08
2022-12-03T22:48:50.417Z,29.70
2022-12-03T22:51:21.523Z,32.20
2022-12-03T22:53:48.267Z,32.13
2022-12-03T22:56:18.107Z,31.50
2022-12-03T22:58:44.648Z,28.42
2022-12-03T23:01:22.237Z,27.23
2022-12-03T23:03:49.011Z,29.52
2022-12-03T23:06:19.701Z,30.45
2022-12-03T23:08:46.500Z,30.08
2022-12-03T23:11:16.098Z,29.75
2022-12-03T23:13:42.816Z,27.83
2022-12-03T23:16:16.889Z,28.20
2022-12-03T23:18:45.057Z,26.70
2022-12-03T23:21:16.123Z,26.77
2022-12-03T23:23:43.257Z,28.25
2022-12-03T23:26:11.363Z,28.30
2022-12-03T23:28:41.253Z,29.70
2022-12-03T23:31:19.519Z,30.45
2022-12-03T23:33:46.451Z,29.08
2022-12-03T23:36:16.217Z,30.35
2022-12-03T23:38:46.589Z,29.33
2022-12-03T23:41:15.055Z,29.90
2022-12-03T23:43:46.260Z,30.98
2022-12-03T23:46:15.010Z,29.33
2022-12-03T23:48:41.849Z,28.00
2022-12-03T23:51:20.491Z,29.88
2022-12-03T23:53:47.196Z,30.30
2022-12-03T23:56:15.486Z,29.23
2022-12-03T23:58:46.934Z,31.92
